Terminal Aerodrome Forecast
Issued by NWS

Home | Current Version | Previous Version | Text Only | Print | Product List | Glossary On
Versions: 1 2 3 4 5 6 7 8 9 10 11 12 13
000
FTUS42 KMLB 280521
TAFTIX
TAF
KTIX 280521Z 2806/2906 35003KT P6SM FEW010 BKN050 BKN250
     FM280800 35003KT P6SM SCT050 SCT120 BKN250
     FM281600 05009KT P6SM VCTS SCT025CB SCT250
     FM282200 08008KT P6SM SCT035 BKN250
      AMD NOT SKED 2806/2811=

USA.gov is the U.S. government's official web portal to all federal, state and local government web resources and services.